sensor_id;sensor_type;location;lat;lon;timestamp;P1;durP1;ratioP1;P2;durP2;ratioP2
4812;SDS011;2420;51.202;8.698;2023-05-07T00:01:55;7.75;;;3.38;;
4812;SDS011;2420;51.202;8.698;2023-05-07T00:04:21;3.42;;;3.08;;
4812;SDS011;2420;51.202;8.698;2023-05-07T00:06:46;3.05;;;2.75;;
4812;SDS011;2420;51.202;8.698;2023-05-07T00:09:12;3.63;;;3.03;;
4812;SDS011;2420;51.202;8.698;2023-05-07T00:11:37;3.42;;;3.08;;
4812;SDS011;2420;51.202;8.698;2023-05-07T00:14:03;3.58;;;2.90;;
4812;SDS011;2420;51.202;8.698;2023-05-07T00:16:29;4.85;;;2.90;;
4812;SDS011;2420;51.202;8.698;2023-05-07T00:18:54;3.47;;;2.80;;
4812;SDS011;2420;51.202;8.698;2023-05-07T00:21:20;4.47;;;3.60;;
4812;SDS011;2420;51.202;8.698;2023-05-07T00:23:46;3.92;;;2.53;;
4812;SDS011;2420;51.202;8.698;2023-05-07T00:26:12;4.15;;;3.00;;
4812;SDS011;2420;51.202;8.698;2023-05-07T00:28:37;3.53;;;3.20;;
4812;SDS011;2420;51.202;8.698;2023-05-07T00:31:03;3.78;;;3.38;;
4812;SDS011;2420;51.202;8.698;2023-05-07T00:33:29;3.67;;;3.20;;
4812;SDS011;2420;51.202;8.698;2023-05-07T00:35:54;6.07;;;3.08;;
4812;SDS011;2420;51.202;8.698;2023-05-07T00:38:20;3.58;;;3.03;;
4812;SDS011;2420;51.202;8.698;2023-05-07T00:40:45;4.80;;;3.17;;
4812;SDS011;2420;51.202;8.698;2023-05-07T00:43:11;4.47;;;3.38;;
4812;SDS011;2420;51.202;8.698;2023-05-07T00:45:37;6.07;;;3.40;;
4812;SDS011;2420;51.202;8.698;2023-05-07T00:48:03;4.50;;;3.08;;
4812;SDS011;2420;51.202;8.698;2023-05-07T00:50:30;5.00;;;3.28;;
4812;SDS011;2420;51.202;8.698;2023-05-07T00:52:57;4.05;;;3.00;;
4812;SDS011;2420;51.202;8.698;2023-05-07T00:55:23;5.72;;;3.50;;
4812;SDS011;2420;51.202;8.698;2023-05-07T00:57:49;4.65;;;3.00;;
4812;SDS011;2420;51.202;8.698;2023-05-07T01:00:16;5.10;;;3.40;;
4812;SDS011;2420;51.202;8.698;2023-05-07T01:02:43;3.90;;;3.33;;
4812;SDS011;2420;51.202;8.698;2023-05-07T01:05:10;3.65;;;3.10;;
4812;SDS011;2420;51.202;8.698;2023-05-07T01:07:39;4.80;;;3.55;;
4812;SDS011;2420;51.202;8.698;2023-05-07T01:10:06;4.70;;;3.80;;
4812;SDS011;2420;51.202;8.698;2023-05-07T01:12:33;4.35;;;3.90;;
4812;SDS011;2420;51.202;8.698;2023-05-07T01:15:00;4.60;;;3.83;;
4812;SDS011;2420;51.202;8.698;2023-05-07T01:17:26;5.10;;;4.00;;
4812;SDS011;2420;51.202;8.698;2023-05-07T01:19:52;3.83;;;3.38;;
4812;SDS011;2420;51.202;8.698;2023-05-07T01:22:51;6.30;;;3.85;;
4812;SDS011;2420;51.202;8.698;2023-05-07T01:25:10;6.05;;;3.72;;
4812;SDS011;2420;51.202;8.698;2023-05-07T01:27:36;5.85;;;3.67;;
4812;SDS011;2420;51.202;8.698;2023-05-07T01:30:05;4.13;;;3.70;;
4812;SDS011;2420;51.202;8.698;2023-05-07T01:35:00;5.53;;;4.50;;
4812;SDS011;2420;51.202;8.698;2023-05-07T01:37:28;6.40;;;4.45;;
4812;SDS011;2420;51.202;8.698;2023-05-07T01:39:54;6.75;;;4.40;;
4812;SDS011;2420;51.202;8.698;2023-05-07T01:42:21;5.35;;;4.35;;
4812;SDS011;2420;51.202;8.698;2023-05-07T01:44:47;7.43;;;4.38;;
4812;SDS011;2420;51.202;8.698;2023-05-07T01:47:13;6.40;;;4.53;;
4812;SDS011;2420;51.202;8.698;2023-05-07T01:49:39;5.90;;;4.15;;
4812;SDS011;2420;51.202;8.698;2023-05-07T01:52:06;5.13;;;4.30;;
4812;SDS011;2420;51.202;8.698;2023-05-07T01:54:31;4.95;;;4.20;;
4812;SDS011;2420;51.202;8.698;2023-05-07T01:56:57;6.32;;;4.88;;
4812;SDS011;2420;51.202;8.698;2023-05-07T01:59:23;8.48;;;4.90;;
4812;SDS011;2420;51.202;8.698;2023-05-07T02:01:48;8.02;;;5.63;;
4812;SDS011;2420;51.202;8.698;2023-05-07T02:04:14;8.52;;;5.38;;
4812;SDS011;2420;51.202;8.698;2023-05-07T02:06:39;7.38;;;5.57;;
4812;SDS011;2420;51.202;8.698;2023-05-07T02:09:05;7.72;;;6.70;;
4812;SDS011;2420;51.202;8.698;2023-05-07T02:11:31;9.18;;;7.22;;
4812;SDS011;2420;51.202;8.698;2023-05-07T02:13:56;8.95;;;7.22;;
4812;SDS011;2420;51.202;8.698;2023-05-07T02:16:22;11.30;;;7.70;;
4812;SDS011;2420;51.202;8.698;2023-05-07T02:18:48;9.07;;;7.25;;
4812;SDS011;2420;51.202;8.698;2023-05-07T02:21:14;10.38;;;7.50;;
4812;SDS011;2420;51.202;8.698;2023-05-07T02:23:39;8.38;;;7.30;;
4812;SDS011;2420;51.202;8.698;2023-05-07T02:26:05;10.45;;;8.10;;
4812;SDS011;2420;51.202;8.698;2023-05-07T02:28:31;8.05;;;6.72;;
4812;SDS011;2420;51.202;8.698;2023-05-07T02:30:56;9.85;;;7.55;;
4812;SDS011;2420;51.202;8.698;2023-05-07T02:33:23;9.55;;;7.95;;
4812;SDS011;2420;51.202;8.698;2023-05-07T02:35:49;9.70;;;7.88;;
4812;SDS011;2420;51.202;8.698;2023-05-07T02:38:16;12.80;;;8.93;;
4812;SDS011;2420;51.202;8.698;2023-05-07T02:40:42;12.13;;;9.90;;
4812;SDS011;2420;51.202;8.698;2023-05-07T02:43:08;12.50;;;10.57;;
4812;SDS011;2420;51.202;8.698;2023-05-07T02:45:36;15.10;;;11.75;;
4812;SDS011;2420;51.202;8.698;2023-05-07T02:48:02;15.50;;;12.02;;
4812;SDS011;2420;51.202;8.698;2023-05-07T02:50:28;14.60;;;10.63;;
4812;SDS011;2420;51.202;8.698;2023-05-07T02:52:54;17.80;;;13.30;;
4812;SDS011;2420;51.202;8.698;2023-05-07T02:55:20;14.80;;;12.63;;
4812;SDS011;2420;51.202;8.698;2023-05-07T02:57:46;16.95;;;14.07;;
4812;SDS011;2420;51.202;8.698;2023-05-07T03:00:15;20.58;;;14.80;;
4812;SDS011;2420;51.202;8.698;2023-05-07T03:02:43;21.33;;;15.73;;
4812;SDS011;2420;51.202;8.698;2023-05-07T03:05:09;22.42;;;16.67;;
4812;SDS011;2420;51.202;8.698;2023-05-07T03:07:35;21.88;;;15.98;;
4812;SDS011;2420;51.202;8.698;2023-05-07T03:10:01;22.58;;;15.75;;
4812;SDS011;2420;51.202;8.698;2023-05-07T03:12:27;22.77;;;16.48;;
4812;SDS011;2420;51.202;8.698;2023-05-07T03:14:53;25.77;;;16.25;;
4812;SDS011;2420;51.202;8.698;2023-05-07T03:17:18;21.77;;;16.05;;
4812;SDS011;2420;51.202;8.698;2023-05-07T03:19:45;21.83;;;15.85;;
4812;SDS011;2420;51.202;8.698;2023-05-07T03:22:10;23.65;;;16.00;;
4812;SDS011;2420;51.202;8.698;2023-05-07T03:24:36;25.27;;;18.80;;
4812;SDS011;2420;51.202;8.698;2023-05-07T03:27:01;23.98;;;17.98;;
4812;SDS011;2420;51.202;8.698;2023-05-07T03:29:27;22.25;;;17.42;;
4812;SDS011;2420;51.202;8.698;2023-05-07T03:31:52;24.38;;;18.67;;
4812;SDS011;2420;51.202;8.698;2023-05-07T03:34:18;25.23;;;19.13;;
4812;SDS011;2420;51.202;8.698;2023-05-07T03:36:47;25.02;;;18.48;;
4812;SDS011;2420;51.202;8.698;2023-05-07T03:39:13;27.60;;;19.25;;
4812;SDS011;2420;51.202;8.698;2023-05-07T03:41:39;25.92;;;18.73;;
4812;SDS011;2420;51.202;8.698;2023-05-07T03:44:04;28.77;;;20.00;;
4812;SDS011;2420;51.202;8.698;2023-05-07T03:46:30;27.63;;;19.13;;
4812;SDS011;2420;51.202;8.698;2023-05-07T03:48:57;26.27;;;19.17;;
4812;SDS011;2420;51.202;8.698;2023-05-07T03:51:23;24.95;;;18.30;;
4812;SDS011;2420;51.202;8.698;2023-05-07T03:53:49;26.98;;;19.55;;
4812;SDS011;2420;51.202;8.698;2023-05-07T03:56:17;28.42;;;18.98;;
4812;SDS011;2420;51.202;8.698;2023-05-07T03:58:43;29.67;;;20.05;;
4812;SDS011;2420;51.202;8.698;2023-05-07T04:01:08;27.35;;;19.17;;
4812;SDS011;2420;51.202;8.698;2023-05-07T04:03:34;28.17;;;19.58;;
4812;SDS011;2420;51.202;8.698;2023-05-07T04:06:00;26.63;;;19.95;;
4812;SDS011;2420;51.202;8.698;2023-05-07T04:08:25;30.55;;;21.10;;
4812;SDS011;2420;51.202;8.698;2023-05-07T04:10:54;29.55;;;20.33;;
4812;SDS011;2420;51.202;8.698;2023-05-07T04:13:20;29.90;;;20.95;;
4812;SDS011;2420;51.202;8.698;2023-05-07T04:15:46;31.73;;;20.65;;
4812;SDS011;2420;51.202;8.698;2023-05-07T04:18:13;34.35;;;22.40;;
4812;SDS011;2420;51.202;8.698;2023-05-07T04:20:39;32.67;;;21.83;;
4812;SDS011;2420;51.202;8.698;2023-05-07T04:23:05;33.42;;;22.05;;
4812;SDS011;2420;51.202;8.698;2023-05-07T04:25:30;32.15;;;21.88;;
4812;SDS011;2420;51.202;8.698;2023-05-07T04:27:56;31.45;;;20.95;;
4812;SDS011;2420;51.202;8.698;2023-05-07T04:30:21;31.30;;;21.30;;
4812;SDS011;2420;51.202;8.698;2023-05-07T04:32:47;31.98;;;21.33;;
4812;SDS011;2420;51.202;8.698;2023-05-07T04:35:13;31.00;;;21.08;;
4812;SDS011;2420;51.202;8.698;2023-05-07T04:37:39;30.85;;;21.75;;
4812;SDS011;2420;51.202;8.698;2023-05-07T04:40:05;32.67;;;21.73;;
4812;SDS011;2420;51.202;8.698;2023-05-07T04:42:31;34.92;;;22.30;;
4812;SDS011;2420;51.202;8.698;2023-05-07T04:44:57;33.60;;;20.58;;
4812;SDS011;2420;51.202;8.698;2023-05-07T04:47:23;31.98;;;22.42;;
4812;SDS011;2420;51.202;8.698;2023-05-07T04:49:48;33.03;;;21.38;;
4812;SDS011;2420;51.202;8.698;2023-05-07T04:52:14;33.45;;;21.48;;
4812;SDS011;2420;51.202;8.698;2023-05-07T04:54:40;30.35;;;21.38;;
4812;SDS011;2420;51.202;8.698;2023-05-07T04:57:06;34.00;;;22.15;;
4812;SDS011;2420;51.202;8.698;2023-05-07T04:59:32;33.33;;;22.13;;
4812;SDS011;2420;51.202;8.698;2023-05-07T05:01:57;34.28;;;23.08;;
4812;SDS011;2420;51.202;8.698;2023-05-07T05:04:23;33.60;;;22.38;;
4812;SDS011;2420;51.202;8.698;2023-05-07T05:06:49;34.22;;;22.30;;
4812;SDS011;2420;51.202;8.698;2023-05-07T05:09:14;34.70;;;22.42;;
4812;SDS011;2420;51.202;8.698;2023-05-07T05:11:40;33.40;;;21.85;;
4812;SDS011;2420;51.202;8.698;2023-05-07T05:14:06;36.63;;;23.52;;
4812;SDS011;2420;51.202;8.698;2023-05-07T05:16:32;35.33;;;23.25;;
4812;SDS011;2420;51.202;8.698;2023-05-07T05:18:57;33.72;;;22.25;;
4812;SDS011;2420;51.202;8.698;2023-05-07T05:21:23;34.00;;;22.35;;
4812;SDS011;2420;51.202;8.698;2023-05-07T05:23:49;32.67;;;22.30;;
4812;SDS011;2420;51.202;8.698;2023-05-07T05:26:15;35.83;;;23.65;;
4812;SDS011;2420;51.202;8.698;2023-05-07T05:28:40;31.73;;;21.13;;
4812;SDS011;2420;51.202;8.698;2023-05-07T05:31:06;37.38;;;24.10;;
4812;SDS011;2420;51.202;8.698;2023-05-07T05:33:31;37.67;;;23.42;;
4812;SDS011;2420;51.202;8.698;2023-05-07T05:35:57;35.95;;;23.05;;
4812;SDS011;2420;51.202;8.698;2023-05-07T05:38:22;37.85;;;23.65;;
4812;SDS011;2420;51.202;8.698;2023-05-07T05:40:48;36.22;;;23.50;;
4812;SDS011;2420;51.202;8.698;2023-05-07T05:43:14;35.58;;;23.58;;
4812;SDS011;2420;51.202;8.698;2023-05-07T05:45:39;36.83;;;23.13;;
4812;SDS011;2420;51.202;8.698;2023-05-07T05:48:05;35.75;;;23.10;;
4812;SDS011;2420;51.202;8.698;2023-05-07T05:50:31;36.80;;;23.55;;
4812;SDS011;2420;51.202;8.698;2023-05-07T05:52:56;37.67;;;22.77;;
4812;SDS011;2420;51.202;8.698;2023-05-07T05:55:22;38.20;;;24.02;;
4812;SDS011;2420;51.202;8.698;2023-05-07T05:57:48;36.42;;;22.95;;
4812;SDS011;2420;51.202;8.698;2023-05-07T06:00:15;34.97;;;23.40;;
4812;SDS011;2420;51.202;8.698;2023-05-07T06:02:41;34.15;;;22.88;;
4812;SDS011;2420;51.202;8.698;2023-05-07T06:05:07;36.50;;;23.83;;
4812;SDS011;2420;51.202;8.698;2023-05-07T06:07:33;38.22;;;24.65;;
4812;SDS011;2420;51.202;8.698;2023-05-07T06:09:59;41.00;;;24.23;;
4812;SDS011;2420;51.202;8.698;2023-05-07T06:12:25;40.13;;;23.08;;
4812;SDS011;2420;51.202;8.698;2023-05-07T06:14:51;39.03;;;23.55;;
4812;SDS011;2420;51.202;8.698;2023-05-07T06:17:17;36.13;;;23.25;;
4812;SDS011;2420;51.202;8.698;2023-05-07T06:19:42;43.55;;;25.83;;
4812;SDS011;2420;51.202;8.698;2023-05-07T06:22:08;42.00;;;24.98;;
4812;SDS011;2420;51.202;8.698;2023-05-07T06:24:33;38.53;;;23.45;;
4812;SDS011;2420;51.202;8.698;2023-05-07T06:26:59;38.33;;;23.50;;
4812;SDS011;2420;51.202;8.698;2023-05-07T06:29:25;37.60;;;22.95;;
4812;SDS011;2420;51.202;8.698;2023-05-07T06:31:51;36.05;;;23.20;;
4812;SDS011;2420;51.202;8.698;2023-05-07T06:34:17;37.40;;;23.27;;
4812;SDS011;2420;51.202;8.698;2023-05-07T06:36:43;37.08;;;23.25;;
4812;SDS011;2420;51.202;8.698;2023-05-07T06:39:08;40.25;;;24.27;;
4812;SDS011;2420;51.202;8.698;2023-05-07T06:41:34;38.40;;;24.33;;
4812;SDS011;2420;51.202;8.698;2023-05-07T06:44:00;37.25;;;23.88;;
4812;SDS011;2420;51.202;8.698;2023-05-07T06:46:27;38.58;;;23.30;;
4812;SDS011;2420;51.202;8.698;2023-05-07T06:48:53;39.10;;;23.70;;
4812;SDS011;2420;51.202;8.698;2023-05-07T06:51:18;43.90;;;25.17;;
4812;SDS011;2420;51.202;8.698;2023-05-07T06:53:44;39.95;;;24.13;;
4812;SDS011;2420;51.202;8.698;2023-05-07T06:56:10;43.83;;;25.55;;
4812;SDS011;2420;51.202;8.698;2023-05-07T06:58:35;40.67;;;24.45;;
4812;SDS011;2420;51.202;8.698;2023-05-07T07:01:02;40.95;;;24.20;;
4812;SDS011;2420;51.202;8.698;2023-05-07T07:03:27;37.83;;;23.45;;
4812;SDS011;2420;51.202;8.698;2023-05-07T07:05:53;37.60;;;23.25;;
4812;SDS011;2420;51.202;8.698;2023-05-07T07:08:20;33.15;;;21.58;;
4812;SDS011;2420;51.202;8.698;2023-05-07T07:10:48;35.70;;;22.00;;
4812;SDS011;2420;51.202;8.698;2023-05-07T07:13:13;34.67;;;21.95;;
4812;SDS011;2420;51.202;8.698;2023-05-07T07:15:39;34.55;;;21.20;;
4812;SDS011;2420;51.202;8.698;2023-05-07T07:18:05;38.33;;;23.13;;
4812;SDS011;2420;51.202;8.698;2023-05-07T07:20:31;36.17;;;21.60;;
4812;SDS011;2420;51.202;8.698;2023-05-07T07:22:57;34.83;;;21.73;;
4812;SDS011;2420;51.202;8.698;2023-05-07T07:25:22;34.08;;;21.98;;
4812;SDS011;2420;51.202;8.698;2023-05-07T07:27:48;34.75;;;21.92;;
4812;SDS011;2420;51.202;8.698;2023-05-07T07:30:14;32.00;;;20.02;;
4812;SDS011;2420;51.202;8.698;2023-05-07T07:32:40;31.35;;;21.33;;
4812;SDS011;2420;51.202;8.698;2023-05-07T07:35:06;31.30;;;20.45;;
4812;SDS011;2420;51.202;8.698;2023-05-07T07:37:32;35.47;;;20.73;;
4812;SDS011;2420;51.202;8.698;2023-05-07T07:39:57;32.83;;;21.65;;
4812;SDS011;2420;51.202;8.698;2023-05-07T07:42:23;32.83;;;20.55;;
4812;SDS011;2420;51.202;8.698;2023-05-07T07:44:48;30.98;;;20.48;;
4812;SDS011;2420;51.202;8.698;2023-05-07T07:47:14;30.60;;;18.75;;
4812;SDS011;2420;51.202;8.698;2023-05-07T07:49:39;32.33;;;19.33;;
4812;SDS011;2420;51.202;8.698;2023-05-07T07:52:05;31.88;;;19.95;;
4812;SDS011;2420;51.202;8.698;2023-05-07T07:54:31;30.58;;;19.48;;
4812;SDS011;2420;51.202;8.698;2023-05-07T07:56:57;32.13;;;20.95;;
4812;SDS011;2420;51.202;8.698;2023-05-07T07:59:23;34.00;;;21.02;;
4812;SDS011;2420;51.202;8.698;2023-05-07T08:01:48;33.33;;;21.20;;
4812;SDS011;2420;51.202;8.698;2023-05-07T08:04:15;36.42;;;21.60;;
4812;SDS011;2420;51.202;8.698;2023-05-07T08:06:41;35.78;;;21.73;;
4812;SDS011;2420;51.202;8.698;2023-05-07T08:09:07;34.15;;;21.02;;
4812;SDS011;2420;51.202;8.698;2023-05-07T08:11:33;33.30;;;21.17;;
4812;SDS011;2420;51.202;8.698;2023-05-07T08:14:01;34.35;;;20.40;;
4812;SDS011;2420;51.202;8.698;2023-05-07T08:16:27;31.75;;;20.20;;
4812;SDS011;2420;51.202;8.698;2023-05-07T08:18:53;31.17;;;20.52;;
4812;SDS011;2420;51.202;8.698;2023-05-07T08:21:19;35.60;;;21.48;;
4812;SDS011;2420;51.202;8.698;2023-05-07T08:23:45;31.48;;;20.50;;
4812;SDS011;2420;51.202;8.698;2023-05-07T08:26:10;34.67;;;21.05;;
4812;SDS011;2420;51.202;8.698;2023-05-07T08:28:36;30.63;;;19.50;;
4812;SDS011;2420;51.202;8.698;2023-05-07T08:31:02;32.85;;;20.20;;
4812;SDS011;2420;51.202;8.698;2023-05-07T08:33:27;31.50;;;19.70;;
4812;SDS011;2420;51.202;8.698;2023-05-07T08:35:53;31.10;;;19.70;;
4812;SDS011;2420;51.202;8.698;2023-05-07T08:38:18;31.05;;;19.20;;
4812;SDS011;2420;51.202;8.698;2023-05-07T08:40:44;32.47;;;19.42;;
4812;SDS011;2420;51.202;8.698;2023-05-07T08:43:13;31.88;;;20.45;;
4812;SDS011;2420;51.202;8.698;2023-05-07T08:45:40;29.75;;;19.27;;
4812;SDS011;2420;51.202;8.698;2023-05-07T08:48:10;30.17;;;19.17;;
4812;SDS011;2420;51.202;8.698;2023-05-07T08:50:40;30.52;;;18.40;;
4812;SDS011;2420;51.202;8.698;2023-05-07T08:53:06;28.10;;;18.83;;
4812;SDS011;2420;51.202;8.698;2023-05-07T08:55:31;28.40;;;19.02;;
4812;SDS011;2420;51.202;8.698;2023-05-07T08:57:58;29.90;;;18.75;;
4812;SDS011;2420;51.202;8.698;2023-05-07T09:00:24;26.98;;;17.95;;
4812;SDS011;2420;51.202;8.698;2023-05-07T09:02:50;27.58;;;17.70;;
4812;SDS011;2420;51.202;8.698;2023-05-07T09:05:16;28.02;;;18.15;;
4812;SDS011;2420;51.202;8.698;2023-05-07T09:07:42;25.52;;;17.67;;
4812;SDS011;2420;51.202;8.698;2023-05-07T09:10:08;28.15;;;18.02;;
4812;SDS011;2420;51.202;8.698;2023-05-07T09:12:35;30.42;;;18.40;;
4812;SDS011;2420;51.202;8.698;2023-05-07T09:15:01;27.08;;;17.73;;
4812;SDS011;2420;51.202;8.698;2023-05-07T09:17:27;28.50;;;17.98;;
4812;SDS011;2420;51.202;8.698;2023-05-07T09:19:53;28.27;;;17.98;;
4812;SDS011;2420;51.202;8.698;2023-05-07T09:22:19;26.30;;;17.75;;
4812;SDS011;2420;51.202;8.698;2023-05-07T09:24:48;27.88;;;17.38;;
4812;SDS011;2420;51.202;8.698;2023-05-07T09:27:15;26.65;;;17.92;;
4812;SDS011;2420;51.202;8.698;2023-05-07T09:29:40;28.95;;;19.20;;
4812;SDS011;2420;51.202;8.698;2023-05-07T09:32:06;28.98;;;18.92;;
4812;SDS011;2420;51.202;8.698;2023-05-07T09:34:33;27.38;;;17.63;;
4812;SDS011;2420;51.202;8.698;2023-05-07T09:37:01;30.13;;;18.83;;
4812;SDS011;2420;51.202;8.698;2023-05-07T09:39:38;28.73;;;18.17;;
4812;SDS011;2420;51.202;8.698;2023-05-07T09:42:15;30.60;;;18.23;;
4812;SDS011;2420;51.202;8.698;2023-05-07T09:44:41;28.20;;;18.05;;
4812;SDS011;2420;51.202;8.698;2023-05-07T09:47:08;26.83;;;17.73;;
4812;SDS011;2420;51.202;8.698;2023-05-07T09:49:35;27.38;;;18.17;;
4812;SDS011;2420;51.202;8.698;2023-05-07T09:52:02;29.08;;;18.63;;
4812;SDS011;2420;51.202;8.698;2023-05-07T09:54:31;24.00;;;17.02;;
4812;SDS011;2420;51.202;8.698;2023-05-07T09:56:58;31.10;;;17.80;;
4812;SDS011;2420;51.202;8.698;2023-05-07T09:59:27;25.65;;;17.38;;
4812;SDS011;2420;51.202;8.698;2023-05-07T10:01:55;26.27;;;17.42;;
4812;SDS011;2420;51.202;8.698;2023-05-07T10:04:23;27.58;;;17.98;;
4812;SDS011;2420;51.202;8.698;2023-05-07T10:06:52;26.30;;;16.60;;
4812;SDS011;2420;51.202;8.698;2023-05-07T10:09:20;27.58;;;16.65;;
4812;SDS011;2420;51.202;8.698;2023-05-07T10:11:46;25.40;;;17.58;;
4812;SDS011;2420;51.202;8.698;2023-05-07T10:14:14;27.98;;;17.77;;
4812;SDS011;2420;51.202;8.698;2023-05-07T10:16:39;27.10;;;17.85;;
4812;SDS011;2420;51.202;8.698;2023-05-07T10:19:07;24.13;;;16.33;;
4812;SDS011;2420;51.202;8.698;2023-05-07T10:21:37;24.95;;;16.45;;
4812;SDS011;2420;51.202;8.698;2023-05-07T10:24:04;28.35;;;16.75;;
4812;SDS011;2420;51.202;8.698;2023-05-07T10:26:38;27.55;;;17.55;;
4812;SDS011;2420;51.202;8.698;2023-05-07T10:29:10;25.10;;;16.92;;
4812;SDS011;2420;51.202;8.698;2023-05-07T10:31:47;27.15;;;17.00;;
4812;SDS011;2420;51.202;8.698;2023-05-07T10:34:23;23.80;;;16.58;;
4812;SDS011;2420;51.202;8.698;2023-05-07T10:36:52;23.17;;;16.10;;
4812;SDS011;2420;51.202;8.698;2023-05-07T10:39:20;24.30;;;15.93;;
4812;SDS011;2420;51.202;8.698;2023-05-07T10:41:46;23.23;;;16.13;;
4812;SDS011;2420;51.202;8.698;2023-05-07T10:44:24;23.08;;;16.58;;
4812;SDS011;2420;51.202;8.698;2023-05-07T10:47:10;21.20;;;15.25;;
4812;SDS011;2420;51.202;8.698;2023-05-07T10:54:41;21.42;;;15.02;;
4812;SDS011;2420;51.202;8.698;2023-05-07T10:59:56;21.65;;;15.48;;
4812;SDS011;2420;51.202;8.698;2023-05-07T11:02:22;24.65;;;16.67;;
4812;SDS011;2420;51.202;8.698;2023-05-07T11:07:53;20.20;;;14.35;;
4812;SDS011;2420;51.202;8.698;2023-05-07T11:10:20;19.38;;;14.43;;
4812;SDS011;2420;51.202;8.698;2023-05-07T11:12:46;21.55;;;14.68;;
4812;SDS011;2420;51.202;8.698;2023-05-07T11:15:13;20.08;;;14.35;;
4812;SDS011;2420;51.202;8.698;2023-05-07T11:17:55;19.65;;;14.40;;
4812;SDS011;2420;51.202;8.698;2023-05-07T11:26:03;19.27;;;13.70;;
4812;SDS011;2420;51.202;8.698;2023-05-07T11:28:30;17.30;;;13.15;;
4812;SDS011;2420;51.202;8.698;2023-05-07T11:31:00;15.93;;;12.95;;
4812;SDS011;2420;51.202;8.698;2023-05-07T11:33:27;17.58;;;13.00;;
4812;SDS011;2420;51.202;8.698;2023-05-07T11:35:53;18.42;;;13.40;;
4812;SDS011;2420;51.202;8.698;2023-05-07T11:38:19;17.60;;;13.02;;
4812;SDS011;2420;51.202;8.698;2023-05-07T11:40:58;18.77;;;12.57;;
4812;SDS011;2420;51.202;8.698;2023-05-07T11:43:29;18.23;;;12.68;;
4812;SDS011;2420;51.202;8.698;2023-05-07T11:45:58;19.63;;;13.02;;
4812;SDS011;2420;51.202;8.698;2023-05-07T11:48:39;19.58;;;12.90;;
4812;SDS011;2420;51.202;8.698;2023-05-07T11:51:05;16.70;;;11.90;;
4812;SDS011;2420;51.202;8.698;2023-05-07T11:53:37;16.05;;;12.18;;
4812;SDS011;2420;51.202;8.698;2023-05-07T11:56:13;14.98;;;11.50;;
4812;SDS011;2420;51.202;8.698;2023-05-07T11:58:41;15.75;;;10.98;;
4812;SDS011;2420;51.202;8.698;2023-05-07T12:01:08;12.60;;;10.02;;
4812;SDS011;2420;51.202;8.698;2023-05-07T12:03:39;14.75;;;11.18;;
4812;SDS011;2420;51.202;8.698;2023-05-07T12:06:09;13.57;;;10.30;;
4812;SDS011;2420;51.202;8.698;2023-05-07T12:08:38;13.65;;;10.35;;
4812;SDS011;2420;51.202;8.698;2023-05-07T12:11:24;13.02;;;10.07;;
4812;SDS011;2420;51.202;8.698;2023-05-07T12:13:50;14.10;;;9.70;;
4812;SDS011;2420;51.202;8.698;2023-05-07T12:16:16;11.50;;;9.20;;
4812;SDS011;2420;51.202;8.698;2023-05-07T12:18:42;15.23;;;10.23;;
4812;SDS011;2420;51.202;8.698;2023-05-07T12:21:09;14.38;;;9.50;;
4812;SDS011;2420;51.202;8.698;2023-05-07T12:23:38;12.45;;;9.57;;
4812;SDS011;2420;51.202;8.698;2023-05-07T12:26:04;11.27;;;8.73;;
4812;SDS011;2420;51.202;8.698;2023-05-07T12:28:30;10.70;;;8.38;;
4812;SDS011;2420;51.202;8.698;2023-05-07T12:31:00;10.13;;;7.63;;
4812;SDS011;2420;51.202;8.698;2023-05-07T12:33:26;13.77;;;8.43;;
4812;SDS011;2420;51.202;8.698;2023-05-07T12:35:54;9.23;;;7.68;;
4812;SDS011;2420;51.202;8.698;2023-05-07T12:38:20;10.27;;;8.02;;
4812;SDS011;2420;51.202;8.698;2023-05-07T12:40:47;9.30;;;7.30;;
4812;SDS011;2420;51.202;8.698;2023-05-07T12:43:19;9.43;;;8.05;;
4812;SDS011;2420;51.202;8.698;2023-05-07T12:45:55;11.15;;;8.50;;
4812;SDS011;2420;51.202;8.698;2023-05-07T12:48:23;11.90;;;7.70;;
4812;SDS011;2420;51.202;8.698;2023-05-07T12:50:52;11.40;;;8.27;;
4812;SDS011;2420;51.202;8.698;2023-05-07T12:53:20;10.40;;;7.78;;
4812;SDS011;2420;51.202;8.698;2023-05-07T12:55:47;10.15;;;6.80;;
4812;SDS011;2420;51.202;8.698;2023-05-07T12:58:18;9.48;;;7.10;;
4812;SDS011;2420;51.202;8.698;2023-05-07T13:00:45;9.23;;;6.70;;
4812;SDS011;2420;51.202;8.698;2023-05-07T13:03:20;10.13;;;7.10;;
4812;SDS011;2420;51.202;8.698;2023-05-07T13:05:54;7.13;;;6.38;;
4812;SDS011;2420;51.202;8.698;2023-05-07T13:08:31;8.18;;;6.70;;
4812;SDS011;2420;51.202;8.698;2023-05-07T13:11:08;9.38;;;6.72;;
4812;SDS011;2420;51.202;8.698;2023-05-07T13:13:35;6.78;;;5.85;;
4812;SDS011;2420;51.202;8.698;2023-05-07T13:16:02;7.80;;;6.70;;
4812;SDS011;2420;51.202;8.698;2023-05-07T13:18:31;9.23;;;7.15;;
4812;SDS011;2420;51.202;8.698;2023-05-07T13:20:58;8.27;;;6.90;;
4812;SDS011;2420;51.202;8.698;2023-05-07T13:23:24;7.20;;;6.20;;
4812;SDS011;2420;51.202;8.698;2023-05-07T13:25:50;7.60;;;6.60;;
4812;SDS011;2420;51.202;8.698;2023-05-07T13:28:17;6.53;;;5.85;;
4812;SDS011;2420;51.202;8.698;2023-05-07T13:30:43;6.85;;;6.15;;
4812;SDS011;2420;51.202;8.698;2023-05-07T13:33:08;6.15;;;5.55;;
4812;SDS011;2420;51.202;8.698;2023-05-07T13:35:34;6.97;;;6.10;;
4812;SDS011;2420;51.202;8.698;2023-05-07T13:38:00;6.43;;;5.72;;
4812;SDS011;2420;51.202;8.698;2023-05-07T13:40:26;7.20;;;5.75;;
4812;SDS011;2420;51.202;8.698;2023-05-07T13:42:51;7.30;;;6.00;;
4812;SDS011;2420;51.202;8.698;2023-05-07T13:45:18;7.57;;;6.22;;
4812;SDS011;2420;51.202;8.698;2023-05-07T13:47:43;7.47;;;6.05;;
4812;SDS011;2420;51.202;8.698;2023-05-07T13:50:10;6.55;;;5.65;;
4812;SDS011;2420;51.202;8.698;2023-05-07T13:52:38;6.88;;;6.18;;
4812;SDS011;2420;51.202;8.698;2023-05-07T13:55:05;8.20;;;5.80;;
4812;SDS011;2420;51.202;8.698;2023-05-07T13:57:32;6.53;;;5.75;;
4812;SDS011;2420;51.202;8.698;2023-05-07T13:59:57;6.10;;;5.50;;
4812;SDS011;2420;51.202;8.698;2023-05-07T14:02:23;6.13;;;5.53;;
4812;SDS011;2420;51.202;8.698;2023-05-07T14:04:48;7.45;;;5.22;;
4812;SDS011;2420;51.202;8.698;2023-05-07T14:07:14;9.27;;;5.53;;
4812;SDS011;2420;51.202;8.698;2023-05-07T14:09:40;6.03;;;5.15;;
4812;SDS011;2420;51.202;8.698;2023-05-07T14:12:05;6.75;;;5.40;;
4812;SDS011;2420;51.202;8.698;2023-05-07T14:14:31;6.40;;;4.95;;
4812;SDS011;2420;51.202;8.698;2023-05-07T14:16:57;5.68;;;4.97;;
4812;SDS011;2420;51.202;8.698;2023-05-07T14:19:22;6.28;;;5.40;;
4812;SDS011;2420;51.202;8.698;2023-05-07T14:21:48;5.70;;;5.10;;
4812;SDS011;2420;51.202;8.698;2023-05-07T14:24:14;6.15;;;4.88;;
4812;SDS011;2420;51.202;8.698;2023-05-07T14:26:39;7.80;;;4.50;;
4812;SDS011;2420;51.202;8.698;2023-05-07T14:29:05;5.78;;;5.15;;
4812;SDS011;2420;51.202;8.698;2023-05-07T14:31:31;6.65;;;5.60;;
4812;SDS011;2420;51.202;8.698;2023-05-07T14:33:57;6.00;;;5.38;;
4812;SDS011;2420;51.202;8.698;2023-05-07T14:36:23;6.45;;;5.47;;
4812;SDS011;2420;51.202;8.698;2023-05-07T14:38:51;6.53;;;5.15;;
4812;SDS011;2420;51.202;8.698;2023-05-07T14:41:19;6.13;;;5.40;;
4812;SDS011;2420;51.202;8.698;2023-05-07T14:43:46;9.50;;;5.25;;
4812;SDS011;2420;51.202;8.698;2023-05-07T14:46:15;5.90;;;5.30;;
4812;SDS011;2420;51.202;8.698;2023-05-07T14:48:43;6.03;;;5.15;;
4812;SDS011;2420;51.202;8.698;2023-05-07T14:51:10;5.82;;;5.20;;
4812;SDS011;2420;51.202;8.698;2023-05-07T14:53:36;6.50;;;5.35;;
4812;SDS011;2420;51.202;8.698;2023-05-07T14:56:01;6.32;;;4.88;;
4812;SDS011;2420;51.202;8.698;2023-05-07T14:58:28;7.35;;;5.20;;
4812;SDS011;2420;51.202;8.698;2023-05-07T15:00:53;6.15;;;5.55;;
4812;SDS011;2420;51.202;8.698;2023-05-07T15:03:19;5.97;;;5.18;;
4812;SDS011;2420;51.202;8.698;2023-05-07T15:05:44;7.47;;;5.40;;
4812;SDS011;2420;51.202;8.698;2023-05-07T15:08:10;7.22;;;5.68;;
4812;SDS011;2420;51.202;8.698;2023-05-07T15:10:36;6.63;;;5.80;;
4812;SDS011;2420;51.202;8.698;2023-05-07T15:13:06;6.93;;;5.70;;
4812;SDS011;2420;51.202;8.698;2023-05-07T15:15:32;9.32;;;5.38;;